Time;durP1;ratioP1;P1;durP2;ratioP2;P2;SDS_P1;SDS_P2;PMS_P1;PMS_P2;Temp;Humidity;BMP_temperature;BMP_pressure;BME280_temperature;BME280_humidity;BME280_pressure;Samples;Min_cycle;Max_cycle;Signal;HPM_P1;HPM_P2
2023/07/09 00:02:20;;;;;;;4.03;3.60;;;21.00;4.10;;;;;;5012165;28;20510;-70
2023/07/09 00:04:46;;;;;;;5.33;3.93;;;20.90;4.00;;;;;;5012151;28;20455;-70
2023/07/09 00:07:21;;;;;;;5.67;3.23;;;20.90;4.90;;;;;;5012266;28;20425;-71
2023/07/09 00:09:47;;;;;;;5.47;3.80;;;20.90;4.30;;;;;;5012387;28;20550;-71
2023/07/09 00:12:14;;;;;;;5.20;4.20;;;20.90;4.90;;;;;;5012126;28;20415;-70
2023/07/09 00:14:40;;;;;;;4.80;2.80;;;20.80;5.00;;;;;;5012515;28;20207;-70
2023/07/09 00:17:28;;;;;;;8.17;3.57;;;20.70;5.00;;;;;;5011007;28;20434;-72
2023/07/09 00:19:54;;;;;;;4.27;3.50;;;20.70;5.00;;;;;;5012366;28;20192;-71
2023/07/09 00:22:20;;;;;;;4.53;3.70;;;20.60;5.40;;;;;;5012262;28;20414;-71
2023/07/09 00:24:47;;;;;;;4.20;3.50;;;20.60;5.80;;;;;;5012449;28;20226;-71
2023/07/09 00:27:14;;;;;;;4.67;3.37;;;20.50;6.20;;;;;;5012282;28;20509;-71
2023/07/09 00:29:41;;;;;;;4.90;3.50;;;20.50;5.80;;;;;;5012005;28;20479;-71
2023/07/09 00:32:15;;;;;;;5.43;3.30;;;20.50;6.10;;;;;;5011752;28;20892;-70
2023/07/09 00:34:42;;;;;;;6.33;4.20;;;20.50;6.20;;;;;;5011828;28;20792;-70
2023/07/09 00:37:12;;;;;;;6.43;4.53;;;20.50;6.40;;;;;;5011813;28;20407;-70
2023/07/09 00:39:40;;;;;;;6.00;3.53;;;20.50;6.40;;;;;;5012123;28;20469;-70
2023/07/09 00:42:10;;;;;;;9.37;3.73;;;20.40;6.40;;;;;;5011510;28;20958;-70
2023/07/09 00:44:36;;;;;;;5.27;3.27;;;20.40;7.60;;;;;;5011732;28;20445;-70
2023/07/09 00:47:19;;;;;;;4.50;3.03;;;20.30;7.00;;;;;;5011767;28;20411;-72
2023/07/09 00:49:47;;;;;;;8.53;4.50;;;20.20;7.00;;;;;;5011762;28;20212;-70
2023/07/09 00:52:37;;;;;;;5.90;4.87;;;20.20;7.50;;;;;;5011446;28;20430;-70
2023/07/09 00:55:09;;;;;;;6.07;4.20;;;20.20;7.70;;;;;;5011701;28;20435;-70
2023/07/09 00:57:38;;;;;;;6.80;4.33;;;20.10;7.60;;;;;;5011616;28;20771;-70
2023/07/09 01:00:09;;;;;;;5.87;4.07;;;20.00;7.60;;;;;;5011473;28;20758;-71
2023/07/09 01:02:35;;;;;;;5.43;4.53;;;20.00;7.90;;;;;;5011341;28;20404;-70
2023/07/09 01:05:02;;;;;;;4.13;3.73;;;19.90;8.60;;;;;;5011408;28;20447;-70
2023/07/09 01:07:29;;;;;;;7.13;4.30;;;19.80;8.50;;;;;;5010425;28;20896;-71
2023/07/09 01:09:55;;;;;;;5.57;4.43;;;19.80;9.20;;;;;;5011488;28;20416;-70
2023/07/09 01:12:22;;;;;;;5.80;4.03;;;19.70;9.30;;;;;;5011222;28;20611;-70
2023/07/09 01:14:54;;;;;;;5.17;3.40;;;19.70;9.30;;;;;;5011322;28;20454;-70
2023/07/09 01:17:20;;;;;;;7.00;3.80;;;19.70;9.20;;;;;;5011490;28;20510;-71
2023/07/09 01:19:50;;;;;;;5.83;4.07;;;19.60;9.60;;;;;;5011289;28;20553;-71
2023/07/09 01:22:19;;;;;;;4.97;3.80;;;19.60;9.80;;;;;;5011264;28;20413;-71
2023/07/09 01:24:55;;;;;;;4.47;3.90;;;19.60;9.70;;;;;;5011431;28;20431;-70
2023/07/09 01:27:26;;;;;;;4.93;4.07;;;19.60;9.50;;;;;;5011825;28;20777;-71
2023/07/09 01:29:52;;;;;;;5.10;3.67;;;19.70;9.50;;;;;;5013034;28;20485;-70
2023/07/09 01:32:20;;;;;;;5.10;3.90;;;19.60;9.70;;;;;;5015029;28;20841;-70
2023/07/09 01:34:47;;;;;;;6.30;4.47;;;19.60;9.80;;;;;;5013905;28;20457;-70
2023/07/09 01:37:16;;;;;;;4.93;3.37;;;19.60;10.00;;;;;;5016114;28;20419;-70
2023/07/09 01:39:42;;;;;;;5.57;3.77;;;19.50;10.30;;;;;;5015821;28;20469;-70
2023/07/09 01:42:08;;;;;;;7.60;3.60;;;19.40;10.50;;;;;;5015798;28;20739;-70
2023/07/09 01:44:35;;;;;;;9.27;3.60;;;19.40;11.00;;;;;;5014981;28;20257;-70
2023/07/09 01:47:03;;;;;;;5.60;3.10;;;19.30;10.90;;;;;;5015088;28;20510;-70
2023/07/09 01:49:32;;;;;;;4.43;3.37;;;19.30;10.90;;;;;;5014903;28;20427;-70
2023/07/09 01:52:00;;;;;;;7.50;4.23;;;19.30;11.10;;;;;;5014549;28;20936;-70
2023/07/09 01:54:27;;;;;;;4.97;3.50;;;19.30;11.30;;;;;;5014628;28;20426;-71
2023/07/09 01:56:56;;;;;;;5.50;3.77;;;19.20;11.60;;;;;;5014704;28;20441;-70
2023/07/09 01:59:22;;;;;;;4.87;3.70;;;19.20;11.50;;;;;;5014667;28;20469;-70
2023/07/09 02:01:47;;;;;;;4.00;3.13;;;19.10;11.50;;;;;;5014527;28;20418;-71
2023/07/09 02:04:13;;;;;;;6.00;4.20;;;19.10;12.00;;;;;;5014965;28;20759;-70
2023/07/09 02:06:38;;;;;;;5.97;3.67;;;19.00;12.10;;;;;;5014537;28;20263;-70
2023/07/09 02:09:04;;;;;;;5.37;4.30;;;19.00;12.30;;;;;;5014591;28;20294;-70
2023/07/09 02:11:30;;;;;;;8.50;4.37;;;19.00;12.70;;;;;;5014429;28;20601;-70
2023/07/09 02:13:55;;;;;;;8.80;4.67;;;19.00;12.40;;;;;;5014391;28;20184;-70
2023/07/09 02:16:21;;;;;;;8.50;4.40;;;19.00;12.60;;;;;;5014538;28;20196;-70
2023/07/09 02:18:46;;;;;;;6.13;3.70;;;19.00;12.70;;;;;;5014422;28;20269;-70
2023/07/09 02:21:12;;;;;;;12.30;4.23;;;18.90;12.90;;;;;;5014308;28;20172;-69
2023/07/09 02:23:37;;;;;;;5.43;4.60;;;18.80;13.30;;;;;;5014096;28;20176;-70
2023/07/09 02:26:03;;;;;;;5.30;3.70;;;18.80;13.50;;;;;;5014240;28;20565;-70
2023/07/09 02:28:28;;;;;;;8.07;4.23;;;18.70;13.70;;;;;;5014258;28;20187;-70
2023/07/09 02:30:54;;;;;;;5.23;4.73;;;18.70;13.60;;;;;;5014157;28;20187;-69
2023/07/09 02:33:20;;;;;;;6.33;4.27;;;18.70;13.90;;;;;;5013941;28;20183;-70
2023/07/09 02:35:46;;;;;;;8.77;4.67;;;18.70;13.90;;;;;;5014008;28;20287;-70
2023/07/09 02:38:12;;;;;;;5.40;3.50;;;18.70;14.30;;;;;;5013898;28;20477;-70
2023/07/09 02:40:38;;;;;;;4.87;3.73;;;18.50;14.80;;;;;;5013720;28;20415;-70
2023/07/09 02:43:04;;;;;;;5.37;4.67;;;18.60;14.70;;;;;;5013239;28;20172;-70
2023/07/09 02:45:29;;;;;;;5.90;3.93;;;18.60;14.60;;;;;;5013864;28;20924;-70
2023/07/09 02:47:55;;;;;;;8.73;4.43;;;18.60;14.30;;;;;;5013869;28;20582;-69
2023/07/09 02:50:21;;;;;;;6.43;4.37;;;18.50;14.90;;;;;;5013731;28;20258;-69
2023/07/09 02:52:46;;;;;;;5.77;4.03;;;18.50;15.20;;;;;;5013311;28;20179;-69
2023/07/09 02:55:12;;;;;;;4.60;4.00;;;18.40;15.40;;;;;;5013809;28;20208;-69
2023/07/09 02:57:37;;;;;;;7.23;3.80;;;18.50;15.30;;;;;;5013488;28;20191;-69
2023/07/09 03:00:05;;;;;;;5.67;3.70;;;18.50;15.20;;;;;;5012360;28;20187;-70
2023/07/09 03:02:30;;;;;;;5.70;3.97;;;18.50;14.90;;;;;;5013327;28;20176;-70
2023/07/09 03:04:56;;;;;;;4.87;4.23;;;18.50;14.80;;;;;;5013275;28;20874;-70
2023/07/09 03:07:22;;;;;;;10.00;4.87;;;18.50;14.80;;;;;;5013404;28;20262;-70
2023/07/09 03:09:47;;;;;;;5.53;3.83;;;18.50;15.20;;;;;;5013518;28;20223;-70
2023/07/09 03:12:13;;;;;;;4.80;4.30;;;18.40;15.50;;;;;;5013066;28;20191;-70
2023/07/09 03:14:38;;;;;;;4.30;3.50;;;18.40;15.50;;;;;;5013641;28;20204;-70
2023/07/09 03:17:04;;;;;;;6.00;4.13;;;18.40;15.50;;;;;;5013422;28;20180;-70
2023/07/09 03:19:29;;;;;;;3.40;2.73;;;18.40;15.40;;;;;;5013245;28;20211;-70
2023/07/09 03:21:55;;;;;;;5.00;3.63;;;18.40;15.40;;;;;;5012970;28;20252;-70
2023/07/09 03:24:20;;;;;;;4.70;3.83;;;18.30;15.40;;;;;;5013134;28;20215;-70
2023/07/09 03:26:47;;;;;;;6.77;5.13;;;18.30;15.40;;;;;;5013177;28;20176;-70
2023/07/09 03:29:13;;;;;;;5.80;3.90;;;18.30;15.40;;;;;;5013122;28;20196;-70
2023/07/09 03:31:38;;;;;;;5.27;4.40;;;18.30;15.60;;;;;;5011574;28;20426;-69
2023/07/09 03:34:04;;;;;;;5.90;4.20;;;18.20;15.90;;;;;;5012852;28;20672;-70
2023/07/09 03:36:30;;;;;;;7.07;4.97;;;18.30;16.30;;;;;;5012899;28;20184;-70
2023/07/09 03:38:55;;;;;;;6.27;4.23;;;18.20;16.60;;;;;;5012890;28;20287;-70
2023/07/09 03:41:21;;;;;;;5.23;3.87;;;18.20;16.50;;;;;;5012802;28;20830;-70
2023/07/09 03:43:46;;;;;;;5.53;3.70;;;18.20;16.40;;;;;;5012614;28;20190;-70
2023/07/09 03:46:12;;;;;;;6.00;4.97;;;18.20;16.40;;;;;;5012742;28;20623;-70
2023/07/09 03:48:38;;;;;;;8.17;4.80;;;18.30;16.20;;;;;;5012749;28;20688;-70
2023/07/09 03:51:03;;;;;;;7.00;5.20;;;18.30;16.30;;;;;;5012762;28;20541;-70
2023/07/09 03:53:29;;;;;;;5.87;4.67;;;18.30;16.30;;;;;;5012410;28;20422;-70
2023/07/09 03:55:56;;;;;;;5.77;4.73;;;18.30;16.30;;;;;;5012699;28;20210;-70
2023/07/09 03:58:23;;;;;;;6.80;4.80;;;18.40;15.90;;;;;;5012508;28;20204;-70
2023/07/09 04:00:49;;;;;;;9.60;5.00;;;18.40;16.10;;;;;;5012564;28;20411;-71
2023/07/09 04:03:14;;;;;;;7.30;4.93;;;18.30;16.50;;;;;;5012212;28;20457;-70
2023/07/09 04:05:40;;;;;;;5.00;4.10;;;18.40;16.40;;;;;;5012274;28;20630;-70
2023/07/09 04:08:06;;;;;;;6.20;4.50;;;18.40;16.10;;;;;;5012543;28;20172;-70
2023/07/09 04:10:31;;;;;;;6.07;4.40;;;18.50;15.50;;;;;;5012506;28;20338;-70
2023/07/09 04:12:58;;;;;;;7.23;4.70;;;18.60;15.60;;;;;;5012102;28;20676;-70
2023/07/09 04:15:23;;;;;;;6.43;5.10;;;18.70;15.60;;;;;;5012308;28;20438;-70
2023/07/09 04:17:49;;;;;;;8.73;4.30;;;18.70;15.50;;;;;;5012125;28;20470;-70
2023/07/09 04:20:14;;;;;;;7.73;4.90;;;18.80;15.00;;;;;;5012168;28;20259;-70
2023/07/09 04:22:41;;;;;;;4.57;4.17;;;18.80;14.10;;;;;;5011953;28;20555;-70
2023/07/09 04:25:09;;;;;;;5.50;4.63;;;18.90;14.00;;;;;;5012079;28;20530;-70
2023/07/09 04:27:36;;;;;;;5.23;4.30;;;19.00;13.80;;;;;;5012232;28;20275;-70
2023/07/09 04:30:02;;;;;;;6.03;4.27;;;19.10;13.50;;;;;;5012080;28;20419;-70
2023/07/09 04:32:27;;;;;;;5.93;5.10;;;19.20;13.30;;;;;;5011900;28;20411;-70
2023/07/09 04:34:53;;;;;;;6.00;4.73;;;19.20;12.50;;;;;;5011995;28;20466;-71
2023/07/09 04:37:19;;;;;;;6.83;3.90;;;19.30;12.20;;;;;;5012284;28;20646;-70
2023/07/09 04:39:45;;;;;;;8.47;4.97;;;19.30;12.00;;;;;;5012070;28;20231;-71
2023/07/09 04:42:16;;;;;;;4.43;3.87;;;19.40;12.20;;;;;;5011658;28;20226;-71
2023/07/09 04:44:42;;;;;;;7.20;5.27;;;19.40;12.20;;;;;;5010493;28;20959;-70
2023/07/09 04:47:08;;;;;;;5.63;3.97;;;19.40;12.00;;;;;;5011760;28;20419;-70
2023/07/09 04:49:34;;;;;;;4.73;3.87;;;19.40;12.30;;;;;;5011920;28;20446;-69
2023/07/09 04:52:00;;;;;;;6.13;4.13;;;19.40;12.30;;;;;;5010453;28;20442;-70
2023/07/09 04:54:26;;;;;;;4.40;3.97;;;19.40;12.00;;;;;;5012559;28;20439;-70
2023/07/09 04:56:52;;;;;;;4.77;4.30;;;19.50;12.10;;;;;;5012462;28;20411;-69
2023/07/09 04:59:18;;;;;;;6.00;4.40;;;19.60;12.20;;;;;;5012424;28;20469;-70
2023/07/09 05:01:44;;;;;;;4.40;3.47;;;19.70;12.20;;;;;;5012065;28;20411;-70
2023/07/09 05:04:09;;;;;;;4.77;3.77;;;19.60;11.80;;;;;;5013403;28;20437;-70
2023/07/09 05:06:35;;;;;;;6.03;4.47;;;19.80;11.50;;;;;;5019003;28;20183;-70
2023/07/09 05:09:01;;;;;;;6.93;4.70;;;19.90;10.80;;;;;;5018691;28;20636;-70
2023/07/09 05:11:26;;;;;;;6.37;4.37;;;20.00;10.80;;;;;;5019012;28;20172;-70
2023/07/09 05:13:52;;;;;;;5.57;3.90;;;20.10;10.20;;;;;;5018864;28;20263;-69
2023/07/09 05:16:18;;;;;;;4.53;3.33;;;20.20;9.80;;;;;;5018790;28;20298;-69
2023/07/09 05:18:45;;;;;;;4.67;3.30;;;20.40;8.90;;;;;;5018786;28;20227;-70
2023/07/09 05:21:11;;;;;;;8.33;4.00;;;20.50;7.90;;;;;;5018814;28;20211;-70
2023/07/09 05:23:36;;;;;;;4.50;3.70;;;20.70;8.10;;;;;;5018445;28;20450;-70
2023/07/09 05:26:03;;;;;;;4.23;3.83;;;20.70;8.00;;;;;;5018656;28;20195;-70
2023/07/09 05:28:30;;;;;;;10.00;5.27;;;20.80;8.20;;;;;;5019448;28;20218;-71
2023/07/09 05:30:55;;;;;;;5.30;4.00;;;20.90;6.90;;;;;;5020649;28;20973;-71
2023/07/09 05:33:21;;;;;;;7.17;4.20;;;21.00;6.50;;;;;;5019986;28;20457;-72
2023/07/09 05:35:47;;;;;;;4.07;3.67;;;21.20;6.20;;;;;;5019799;28;20210;-72
2023/07/09 05:38:13;;;;;;;5.63;4.23;;;21.40;5.80;;;;;;5019308;28;20204;-72
2023/07/09 05:40:39;;;;;;;4.87;4.37;;;21.70;5.00;;;;;;5019102;28;20490;-72
2023/07/09 05:43:05;;;;;;;8.17;3.90;;;22.90;3.40;;;;;;4998428;28;20438;-73
2023/07/09 05:45:31;;;;;;;5.30;4.50;;;25.40;1.00;;;;;;4999949;28;20436;-73
2023/07/09 05:47:58;;;;;;;5.20;4.67;;;28.30;1.00;;;;;;4998217;28;20181;-70
2023/07/09 05:50:24;;;;;;;5.20;4.73;;;;;;;;;;4998448;28;20906;-71
2023/07/09 05:52:50;;;;;;;5.97;5.47;;;32.70;1.00;;;;;;4998101;28;20839;-71
2023/07/09 05:55:15;;;;;;;6.00;5.60;;;34.20;1.00;;;;;;4998708;28;20451;-70
2023/07/09 05:57:41;;;;;;;8.53;6.27;;;35.40;1.00;;;;;;4998321;28;20184;-71
2023/07/09 06:00:08;;;;;;;6.20;5.80;;;36.10;1.00;;;;;;4998172;28;20181;-71
2023/07/09 06:02:34;;;;;;;7.60;6.90;;;37.00;1.00;;;;;;4996769;28;20203;-71
2023/07/09 06:05:00;;;;;;;6.83;6.30;;;37.90;1.00;;;;;;4998088;28;20909;-71
2023/07/09 06:07:25;;;;;;;6.30;5.70;;;37.90;1.00;;;;;;4998169;28;20619;-71
2023/07/09 06:09:52;;;;;;;6.37;5.50;;;38.10;1.00;;;;;;4998467;28;20177;-71
2023/07/09 06:12:18;;;;;;;6.67;6.07;;;38.80;1.00;;;;;;4997762;28;20185;-71
2023/07/09 06:14:44;;;;;;;6.50;6.00;;;39.20;1.00;;;;;;4998053;28;20462;-71
2023/07/09 06:17:09;;;;;;;5.90;5.50;;;40.20;1.00;;;;;;4994251;28;20493;-71
2023/07/09 06:19:35;;;;;;;6.50;6.10;;;40.50;1.00;;;;;;4995164;28;20208;-71
2023/07/09 06:22:00;;;;;;;7.30;5.73;;;39.80;1.00;;;;;;4994591;28;20176;-75
2023/07/09 06:24:26;;;;;;;6.97;6.40;;;40.10;1.00;;;;;;4995394;28;20572;-71
2023/07/09 06:26:51;;;;;;;6.87;6.10;;;40.00;1.00;;;;;;4995002;28;20181;-71
2023/07/09 06:29:17;;;;;;;6.13;5.73;;;40.40;1.00;;;;;;4996036;28;20191;-71
2023/07/09 06:31:42;;;;;;;6.97;6.40;;;40.80;1.00;;;;;;4995548;28;20185;-72
2023/07/09 06:34:09;;;;;;;6.77;6.17;;;41.00;1.00;;;;;;4996096;28;20562;-72
2023/07/09 06:36:35;;;;;;;7.40;6.77;;;41.70;1.00;;;;;;4996091;28;20203;-73
2023/07/09 06:39:01;;;;;;;7.83;7.23;;;42.30;1.00;;;;;;4995687;28;20813;-72
2023/07/09 06:41:27;;;;;;;6.93;6.30;;;41.80;1.00;;;;;;4995556;28;20478;-72
2023/07/09 06:43:53;;;;;;;11.60;7.17;;;42.20;1.00;;;;;;4995443;28;20183;-73
2023/07/09 06:46:19;;;;;;;5.90;5.50;;;41.80;1.00;;;;;;4995022;28;20199;-73
2023/07/09 06:48:45;;;;;;;7.50;6.93;;;41.00;1.00;;;;;;4993151;28;20193;-73
2023/07/09 06:51:10;;;;;;;7.23;6.63;;;40.90;1.00;;;;;;4994814;28;20427;-73
2023/07/09 06:53:36;;;;;;;5.77;5.37;;;40.30;1.00;;;;;;4995055;28;20248;-72
2023/07/09 06:56:02;;;;;;;6.63;6.00;;;40.90;1.00;;;;;;4995070;28;20201;-73
2023/07/09 06:58:31;;;;;;;6.07;5.67;;;41.30;1.00;;;;;;4995314;28;20192;-72
2023/07/09 07:00:57;;;;;;;7.40;6.70;;;41.90;1.00;;;;;;4995122;28;20845;-72
2023/07/09 07:03:24;;;;;;;5.80;5.40;;;40.90;1.00;;;;;;4994417;28;20412;-73
2023/07/09 07:05:53;;;;;;;6.70;6.20;;;42.30;1.00;;;;;;4994772;28;20212;-71
2023/07/09 07:08:22;;;;;;;6.27;5.80;;;42.40;1.00;;;;;;4994843;28;20419;-72
2023/07/09 07:10:49;;;;;;;8.10;7.30;;;43.00;1.00;;;;;;4995870;28;20508;-72
2023/07/09 07:13:15;;;;;;;7.60;7.00;;;42.20;1.00;;;;;;4996034;28;20424;-72
2023/07/09 07:15:41;;;;;;;5.93;5.53;;;42.50;1.00;;;;;;4995806;28;20475;-72
2023/07/09 07:18:07;;;;;;;6.40;5.90;;;43.40;1.00;;;;;;4995096;28;20567;-72
2023/07/09 07:20:33;;;;;;;6.87;6.37;;;43.40;1.00;;;;;;4994653;28;20447;-75
2023/07/09 07:22:59;;;;;;;7.03;6.43;;;44.10;1.00;;;;;;4994197;28;20530;-73
2023/07/09 07:25:25;;;;;;;7.97;6.93;;;43.60;1.00;;;;;;4994002;28;20439;-72
2023/07/09 07:27:51;;;;;;;6.47;6.03;;;42.90;1.00;;;;;;4993624;28;20418;-72
2023/07/09 07:30:17;;;;;;;8.00;7.30;;;41.70;1.00;;;;;;4993912;28;20415;-74
2023/07/09 07:32:45;;;;;;;6.77;6.23;;;41.40;1.00;;;;;;4999189;28;20376;-72
2023/07/09 07:35:11;;;;;;;6.23;5.47;;;40.90;1.00;;;;;;5008952;28;20196;-72
2023/07/09 07:37:37;;;;;;;6.20;5.80;;;42.60;1.00;;;;;;5009164;28;20433;-71
2023/07/09 07:40:04;;;;;;;6.10;5.60;;;42.10;1.00;;;;;;5009479;28;20427;-72
2023/07/09 07:42:30;;;;;;;7.13;6.53;;;43.90;1.00;;;;;;5008548;28;20195;-72
2023/07/09 07:44:55;;;;;;;6.43;5.60;;;43.60;1.00;;;;;;5008819;28;20446;-72
2023/07/09 07:47:21;;;;;;;6.17;5.73;;;44.00;1.00;;;;;;5009810;28;20318;-72
2023/07/09 07:49:47;;;;;;;6.73;6.23;;;43.70;1.00;;;;;;5008935;28;20889;-72
2023/07/09 07:52:12;;;;;;;7.50;6.90;;;44.60;1.00;;;;;;5013410;28;20184;-71
2023/07/09 07:54:38;;;;;;;12.80;6.60;;;45.20;1.00;;;;;;5029057;28;20564;-73
2023/07/09 07:57:04;;;;;;;7.10;6.60;;;45.80;1.00;;;;;;5028539;28;20183;-73
2023/07/09 07:59:30;;;;;;;6.50;6.03;;;47.00;1.00;;;;;;5029322;28;20207;-72
2023/07/09 08:01:56;;;;;;;7.87;7.07;;;47.50;1.00;;;;;;5028788;28;20954;-72
2023/07/09 08:04:21;;;;;;;6.90;6.40;;;47.40;1.00;;;;;;5044583;23;20460;-69
2023/07/09 08:06:47;;;;;;;8.13;6.30;;;46.50;1.00;;;;;;5008244;28;20207;-69
2023/07/09 08:09:13;;;;;;;6.10;5.70;;;46.20;1.00;;;;;;5009646;28;20637;-71
2023/07/09 08:11:38;;;;;;;6.90;6.40;;;46.00;1.00;;;;;;5008712;28;20583;-68
2023/07/09 08:14:04;;;;;;;7.57;6.97;;;46.70;1.00;;;;;;5009660;28;20415;-69
2023/07/09 08:16:30;;;;;;;6.60;6.10;;;47.60;1.00;;;;;;5009044;28;20199;-69
2023/07/09 08:18:55;;;;;;;6.53;5.93;;;47.00;1.00;;;;;;5007390;28;20219;-69
2023/07/09 08:21:21;;;;;;;7.00;6.50;;;46.10;1.00;;;;;;5006665;28;20192;-69
2023/07/09 08:23:47;;;;;;;6.30;5.90;;;46.40;1.00;;;;;;5007067;28;20176;-70
2023/07/09 08:26:12;;;;;;;5.80;5.30;;;46.70;1.00;;;;;;5005100;28;20207;-69
2023/07/09 08:28:38;;;;;;;6.37;5.87;;;46.50;1.00;;;;;;5005611;28;20242;-69
2023/07/09 08:31:04;;;;;;;6.67;6.17;;;47.50;1.00;;;;;;5007597;28;20215;-69
2023/07/09 08:33:31;;;;;;;6.13;5.70;;;46.90;1.00;;;;;;5007837;28;20661;-68
2023/07/09 08:35:56;;;;;;;7.53;6.40;;;46.40;1.00;;;;;;5008547;28;20700;-69
2023/07/09 08:38:22;;;;;;;6.10;5.60;;;47.60;1.00;;;;;;5007922;28;20458;-69
2023/07/09 08:40:55;;;;;;;5.80;5.40;;;48.10;1.00;;;;;;5008076;28;20283;-69
2023/07/09 08:43:29;;;;;;;6.90;6.40;;;47.30;1.00;;;;;;5006794;28;20415;-69
2023/07/09 08:46:09;;;;;;;6.63;6.13;;;46.20;1.00;;;;;;4989127;28;20858;-69
2023/07/09 08:48:39;;;;;;;6.00;5.60;;;47.00;1.00;;;;;;4989212;28;20838;-69
2023/07/09 08:51:31;;;;;;;7.57;6.90;;;47.80;1.00;;;;;;4988728;28;20796;-70
2023/07/09 08:54:00;;;;;;;7.00;6.50;;;47.60;1.00;;;;;;4985941;28;20953;-68
2023/07/09 08:56:29;;;;;;;6.77;6.20;;;47.70;1.00;;;;;;5001641;28;20492;-69
2023/07/09 08:58:58;;;;;;;6.57;6.07;;;47.50;1.00;;;;;;5008423;28;20549;-69
2023/07/09 09:01:57;;;;;;;6.73;6.23;;;47.20;1.00;;;;;;5006009;28;20427;-69
2023/07/09 09:04:30;;;;;;;6.70;6.20;;;48.20;1.00;;;;;;5000331;28;20541;-68
2023/07/09 09:07:10;;;;;;;6.40;6.00;;;48.30;1.00;;;;;;5007560;28;20419;-68
2023/07/09 09:10:03;;;;;;;6.70;6.27;;;47.90;1.00;;;;;;5008499;28;20415;-71
2023/07/09 09:12:37;;;;;;;7.30;6.60;;;46.20;1.00;;;;;;5001938;28;20434;-69
2023/07/09 09:15:25;;;;;;;6.57;6.07;;;45.80;1.00;;;;;;5005268;28;20438;-70
2023/07/09 09:17:55;;;;;;;6.43;5.93;;;46.40;1.00;;;;;;5006140;28;20458;-70
2023/07/09 09:20:22;;;;;;;5.80;5.40;;;45.50;1.00;;;;;;5006703;28;20861;-67
2023/07/09 09:22:50;;;;;;;7.43;6.70;;;42.90;1.00;;;;;;5007127;28;20514;-68
2023/07/09 09:25:20;;;;;;;6.03;5.53;;;40.70;1.00;;;;;;5007216;28;20435;-69
2023/07/09 09:27:45;;;;;;;6.57;6.07;;;38.80;1.00;;;;;;5008356;28;20454;-69
2023/07/09 09:30:17;;;;;;;6.50;5.90;;;37.20;1.00;;;;;;5007958;28;20785;-69
2023/07/09 09:32:47;;;;;;;5.87;5.37;;;36.20;1.00;;;;;;5006135;28;20230;-68
2023/07/09 09:35:19;;;;;;;6.63;6.00;;;35.30;1.00;;;;;;5007320;28;20541;-69
2023/07/09 09:37:51;;;;;;;7.07;6.47;;;34.50;1.00;;;;;;5008330;28;20418;-69
2023/07/09 09:40:18;;;;;;;6.60;6.00;;;34.20;1.00;;;;;;5007709;28;20841;-68
2023/07/09 09:42:44;;;;;;;6.30;5.80;;;34.10;1.00;;;;;;5007483;28;20430;-68
2023/07/09 09:45:16;;;;;;;6.63;6.13;;;33.90;1.00;;;;;;5009706;28;20860;-68
2023/07/09 09:47:43;;;;;;;6.37;5.93;;;33.70;1.00;;;;;;5011806;28;20553;-70
2023/07/09 09:50:20;;;;;;;6.93;5.80;;;33.50;1.00;;;;;;5012273;28;20423;-70
2023/07/09 09:52:48;;;;;;;6.70;6.17;;;33.60;1.00;;;;;;5014645;28;20429;-68
2023/07/09 09:55:20;;;;;;;6.03;5.63;;;33.80;1.00;;;;;;5015227;28;20457;-70
2023/07/09 09:57:53;;;;;;;5.83;5.47;;;33.70;1.00;;;;;;5015229;28;20464;-69
2023/07/09 10:00:24;;;;;;;7.33;6.73;;;33.80;1.00;;;;;;5017466;28;20430;-69
2023/07/09 10:02:50;;;;;;;6.50;5.90;;;33.60;1.00;;;;;;5032566;28;20430;-69
2023/07/09 10:05:20;;;;;;;6.73;6.03;;;33.50;1.00;;;;;;5022659;28;20470;-69
2023/07/09 10:08:07;;;;;;;6.97;6.33;;;33.60;1.00;;;;;;5014972;28;20172;-69
2023/07/09 10:10:33;;;;;;;6.40;5.90;;;33.50;1.00;;;;;;5015135;28;20484;-68
2023/07/09 10:13:22;;;;;;;6.20;5.70;;;33.40;1.00;;;;;;5014729;28;20423;-69
2023/07/09 10:16:38;;;;;;;6.00;5.50;;;33.50;1.00;;;;;;5015082;28;20584;-69
2023/07/09 10:19:36;;;;;;;6.67;6.10;;;33.50;1.00;;;;;;5006050;28;20531;-69
2023/07/09 10:22:35;;;;;;;6.77;6.27;;;33.70;1.00;;;;;;5013577;28;20427;-69
2023/07/09 10:25:17;;;;;;;7.10;6.60;;;33.60;1.00;;;;;;5007919;28;20454;-69
2023/07/09 10:27:52;;;;;;;5.70;5.30;;;33.70;1.00;;;;;;5014932;28;20438;-69
2023/07/09 10:30:25;;;;;;;8.20;6.60;;;33.70;1.00;;;;;;5015175;28;20402;-69
2023/07/09 10:33:09;;;;;;;6.83;6.23;;;33.80;1.00;;;;;;5014569;28;20422;-69
2023/07/09 10:35:52;;;;;;;9.47;6.50;;;33.70;1.00;;;;;;5013616;28;20473;-70
2023/07/09 10:38:35;;;;;;;6.10;5.60;;;34.00;1.00;;;;;;5029853;28;20463;-70
2023/07/09 10:41:04;;;;;;;6.53;6.00;;;34.10;1.00;;;;;;5014572;28;20423;-69
2023/07/09 10:43:46;;;;;;;6.50;6.00;;;34.20;1.00;;;;;;5014335;28;20909;-69
2023/07/09 10:46:16;;;;;;;6.97;6.30;;;34.30;1.00;;;;;;5014834;28;20846;-70
2023/07/09 10:48:45;;;;;;;7.07;6.47;;;34.40;1.00;;;;;;5014810;28;20426;-70
2023/07/09 10:51:29;;;;;;;5.97;5.57;;;34.30;1.00;;;;;;5014774;28;20924;-70
2023/07/09 10:54:22;;;;;;;7.77;7.07;;;34.40;1.00;;;;;;5012732;28;20430;-70
2023/07/09 10:56:57;;;;;;;6.67;5.77;;;34.50;1.00;;;;;;5014409;28;20461;-69
2023/07/09 10:59:35;;;;;;;7.23;6.73;;;34.50;1.00;;;;;;5012966;28;20493;-70
2023/07/09 11:02:16;;;;;;;6.43;6.00;;;34.60;1.00;;;;;;5012221;28;20451;-70
2023/07/09 11:04:47;;;;;;;6.37;5.87;;;34.70;1.00;;;;;;5013912;28;20577;-70
2023/07/09 11:07:18;;;;;;;6.43;5.90;;;34.60;1.00;;;;;;5014091;28;20414;-69
2023/07/09 11:09:46;;;;;;;6.23;5.77;;;34.50;1.00;;;;;;5012853;28;20427;-70
2023/07/09 11:12:24;;;;;;;7.13;6.23;;;34.50;1.00;;;;;;5013821;28;20506;-70
2023/07/09 11:14:55;;;;;;;7.03;6.37;;;34.60;1.00;;;;;;5014203;28;20950;-70
2023/07/09 11:17:22;;;;;;;5.73;5.30;;;34.40;1.00;;;;;;5014160;28;20473;-69
2023/07/09 11:19:54;;;;;;;6.43;6.03;;;34.50;1.00;;;;;;5012520;28;20550;-69
2023/07/09 11:22:22;;;;;;;6.23;5.83;;;34.50;1.00;;;;;;5013620;28;20427;-69
2023/07/09 11:24:50;;;;;;;6.00;5.47;;;34.70;1.00;;;;;;5010377;28;20439;-70
2023/07/09 11:27:19;;;;;;;5.90;5.43;;;34.70;1.00;;;;;;5009176;28;20959;-70
2023/07/09 11:29:56;;;;;;;6.73;6.23;;;34.90;1.00;;;;;;5009627;28;20422;-68
2023/07/09 11:32:22;;;;;;;6.47;5.97;;;34.60;1.00;;;;;;5007741;28;20426;-69
2023/07/09 11:34:48;;;;;;;6.07;5.57;;;34.60;1.00;;;;;;5010413;28;20481;-71
2023/07/09 11:37:15;;;;;;;5.97;5.57;;;34.50;1.00;;;;;;5010087;28;20473;-69
2023/07/09 11:39:41;;;;;;;6.40;5.80;;;34.50;1.00;;;;;;5009345;28;20208;-69
2023/07/09 11:42:24;;;;;;;5.97;5.47;;;34.50;1.00;;;;;;5012347;28;20897;-69
2023/07/09 11:44:56;;;;;;;7.53;6.80;;;34.40;1.00;;;;;;5013428;28;20278;-69
2023/07/09 11:47:27;;;;;;;6.60;6.10;;;34.60;1.00;;;;;;5013294;28;20406;-69
2023/07/09 11:49:58;;;;;;;7.50;5.97;;;34.70;1.00;;;;;;5013466;28;20418;-69
2023/07/09 11:52:38;;;;;;;7.20;6.50;;;34.90;1.00;;;;;;5013026;28;20488;-69
2023/07/09 11:55:29;;;;;;;6.23;5.73;;;34.80;1.00;;;;;;5007579;28;20458;-69
2023/07/09 11:58:00;;;;;;;7.63;6.83;;;34.80;1.00;;;;;;5005148;28;20932;-69
2023/07/09 12:00:30;;;;;;;9.03;8.13;;;35.00;1.00;;;;;;5009042;28;20511;-70
2023/07/09 12:02:57;;;;;;;6.03;5.63;;;35.10;1.00;;;;;;5008259;28;20441;-70
2023/07/09 12:05:28;;;;;;;6.47;5.27;;;35.30;1.00;;;;;;5011141;28;20524;-70
2023/07/09 12:07:54;;;;;;;6.63;5.83;;;35.40;1.00;;;;;;5012375;28;20756;-71
2023/07/09 12:10:32;;;;;;;6.33;5.73;;;35.40;1.00;;;;;;5007638;28;20474;-71
2023/07/09 12:13:00;;;;;;;5.87;5.37;;;35.20;1.00;;;;;;5008175;28;20437;-71
2023/07/09 12:15:29;;;;;;;6.00;5.43;;;35.00;1.00;;;;;;5006910;28;20457;-71
2023/07/09 12:18:04;;;;;;;5.47;4.97;;;35.00;1.00;;;;;;5008018;28;20419;-71
2023/07/09 12:20:33;;;;;;;6.40;5.80;;;34.90;1.00;;;;;;5008324;28;20442;-71
2023/07/09 12:23:00;;;;;;;5.93;5.33;;;35.00;1.00;;;;;;5009010;28;20809;-70
2023/07/09 12:25:30;;;;;;;7.67;6.80;;;34.90;1.00;;;;;;5007503;28;20447;-71
2023/07/09 12:27:58;;;;;;;6.43;5.93;;;34.80;1.00;;;;;;5008565;28;20480;-71
2023/07/09 12:30:23;;;;;;;6.03;5.63;;;34.60;1.00;;;;;;5008775;28;20434;-71
2023/07/09 12:32:54;;;;;;;7.07;6.47;;;34.50;1.00;;;;;;5006928;28;20429;-71
2023/07/09 12:35:20;;;;;;;5.97;5.57;;;34.60;1.00;;;;;;5007941;28;20192;-71
2023/07/09 12:37:48;;;;;;;6.77;6.20;;;34.60;1.00;;;;;;5007011;28;20434;-70
2023/07/09 12:40:21;;;;;;;6.00;5.50;;;34.50;1.00;;;;;;5008730;28;20480;-71
2023/07/09 12:42:47;;;;;;;5.93;5.33;;;34.50;1.00;;;;;;5007215;28;20422;-70
2023/07/09 12:45:19;;;;;;;6.10;5.60;;;34.70;1.00;;;;;;5003304;28;20439;-70
2023/07/09 12:47:46;;;;;;;6.67;6.07;;;34.80;1.00;;;;;;5008079;28;20561;-71
2023/07/09 12:50:26;;;;;;;5.97;5.57;;;35.00;1.00;;;;;;5010207;28;20406;-70
2023/07/09 12:52:55;;;;;;;6.10;5.67;;;35.20;1.00;;;;;;5007851;28;20426;-71
2023/07/09 12:55:26;;;;;;;5.87;5.07;;;35.30;1.00;;;;;;5008619;28;20804;-71
2023/07/09 12:57:56;;;;;;;5.57;5.10;;;35.00;1.00;;;;;;5007038;28;20477;-71
2023/07/09 13:00:25;;;;;;;5.20;4.80;;;35.10;1.00;;;;;;5008075;28;20943;-71
2023/07/09 13:02:55;;;;;;;5.93;5.53;;;35.20;1.00;;;;;;5007878;28;20423;-71
2023/07/09 13:05:23;;;;;;;5.53;5.13;;;35.20;1.00;;;;;;5007098;28;20485;-71